Airports

 


Airport Name Latest METAR Visual Conditions
Cincinnati/Northern Kentucky International (CVG) KCVG 091152Z 12011KT 10SM BKN040 OVC045 10/03 A2979 RMK AO2 SLP086 60001 70004 T01000033 10100 20089 56036 $ VFR
John Glenn Columbus International (CMH) KCMH 091216Z 08013G18KT 10SM -RA FEW009 BKN018 OVC060 06/05 A2991 RMK AO2 P0001 T00610050 MVFR
Yeager (CRW) KCRW 091154Z 03003KT 10SM BKN070 OVC210 09/04 A2992 RMK AO2 SLP129 60000 T00940044 10094 20078 58035 VFR
James M Cox Dayton International (DAY) KDAY 091240Z 09015G20KT 10SM BKN011 BKN017 OVC045 07/04 A2984 RMK AO2 RAE35 PRESFR P0001 T00720039 $ MVFR
Evansville Regional (EVV) KEVV 091154Z 19012G21KT 10SM SCT100 18/12 A2962 RMK AO2 SLP029 T01780122 10178 20117 56040 $ VFR
Indianapolis International (IND) KIND 091204Z 08018G26KT 10SM -RA FEW009 OVC034 08/07 A2969 RMK AO2 PK WND 08026/1203 P0000 T00780067 VFR
Blue Grass (LEX) KLEX 091154Z 18013KT 10SM SCT039 BKN075 13/07 A2981 RMK AO2 SLP092 T01330072 10133 20111 56030 VFR
Louisville Muhammad Ali International (SDF) KSDF 091156Z 18013G26KT 10SM BKN080 OVC110 17/09 A2972 RMK AO2 PK WND 19026/1148 SLP061 70001 T01670094 10167 20128 58039 $ VFR
Anderson Municipal-Darlington Field (AID) KAID 081959Z 07003KT 10SM CLR 12/301 A3010 VFR
Columbus Municipal (BAK) KBAK 091145Z 11006KT 7SM -RA SCT045 OVC0701 09/05 A2972 RMK RAB22 VFR
Monroe County (BMG) KBMG 091242Z 12005KT 9SM VCTS -RA OVC041 11/08 A2964 RMK AO2 LTG DSNT ALQDS RAB28 TS W MOV E P0002 T01060078 $ VFR
Wright-Patterson Air Force Base (FFO) KFFO 091236Z 08011KT 10SM -RA BKN014 BKN021 OVC048 07/05 A2986 RMK AO2A CIG 014V029 SLP117 MVFR
Godman Army Airfield (FTK) KFTK 091223Z AUTO 18017G24KT 10SM SCT080 OVC100 16/12 A2972 RMK AO2 PRESRR SLP065 VFR
Himsel Army Airfield (HBE) No weather for this Airport Unknown
Tri-State/Milton J Ferguson Field (HTS) KHTS 091151Z 11005KT 10SM OVC060 09/04 A2989 RMK AO2 SLP120 60001 70002 T00940044 10100 20089 56031 VFR
Terre Haute Regional (HUF) KHUF 091238Z 06013KT 1 3/4SM R05/6000VP6000FT +RA BR BKN024 OVC030 09/08 A2966 RMK AO2 LTG DSNT NE-S TSB06E26 P0035 T00890078 IFR
Wilmington Air Park (ILN) KILN 091154Z AUTO 11011G22KT 10SM -RA OVC048 07/04 A2985 RMK AO2 RAB40 SLP117 P0000 60002 70003 T00720039 10083 20072 56041 VFR
Rickenbacker International (LCK) KLCK 091155Z AUTO 07011G17KT 10SM -RA SCT009 OVC060 06/05 A2993 RMK AO2 T00600052 10077 20060 VFR
Bowman Field (LOU) KLOU 091153Z 16010KT 10SM BKN080 OVC110 16/08 A2972 RMK AO2 PRESFR SLP063 T01560083 10156 20128 58040 VFR
Cincinnati Municipal Airport Lunken Field (LUK) KLUK 091153Z 08003KT 10SM OVC047 11/05 A2982 RMK AO2 SLP099 60002 70004 T01060050 10106 20094 56040 VFR
Delaware County Regional (MIE) KMIE 091205Z 09021G30KT 9SM -RA BKN010 OVC042 08/05 A2981 RMK AO2 PK WND 10030/1202 LTG DSNT N-E CIG 007V013 P0000 T00780050 MVFR
Ohio State University (OSU) KOSU 091153Z 08010KT 7SM -RA BKN010 OVC037 07/05 A2993 RMK AO2 CIG 008V013 SLP137 P0009 60036 70042 T00670050 10089 20067 58018 MVFR
Owensboro-Daviess County Regional (OWB) KOWB 091156Z 19018G24KT 10SM FEW075 OVC090 18/13 A2966 RMK AO2 SLP043 60000 T01780133 10178 20128 58038 VFR
Mid-Ohio Valley Regional (PKB) KPKB 091153Z 09004KT 10SM -RA OVC065 07/04 A2996 RMK AO2 SLP144 P0001 60005 70005 T00670044 10083 20067 58033 VFR
Bolton Field (TZR) KTZR 091145Z 09009G16KT 5SM -RA OVC007 06/05 A2994 IFR
Middlesboro-Bell County (1A6) K1A6 091235Z AUTO 16006KT 10SM CLR 15/07 A2999 RMK AO2 T01520073 VFR
Georgetown-Scott County Regional (27K) K27K 090615Z AUTO 08003KT 10SM OVC070 11/05 A3000 RMK AO1 VFR
Madisonville Regional (2I0) K2I0 091235Z AUTO 22015G23KT 10SM SCT065 SCT120 20/14 A2970 RMK AO2 T02020136 VFR
Mason County (3I2) K3I2 091235Z AUTO 05004KT 7SM -RA SCT009 SCT013 BKN060 10/05 A2992 RMK AO2 T00970049 VFR
Knox County (4I3) K4I3 091235Z AUTO 08009KT 5SM RA OVC008 05/04 A2996 RMK AO2 P0007 IFR
Lebanon Springfield-George Hoerter Field (6I2) K6I2 091230Z AUTO 18015G22KT 10SM SCT110 17/12 A2977 RMK AO2 VFR
Logan County (6L4) K6L4 091235Z AUTO 10SM SCT060 SCT070 BKN080 14/05 A2993 RMK AO2 VFR
Livingston Municipal (8A3) K8A3 091235Z AUTO 21012G26KT 180V260 10SM CLR 18/09 A2990 RMK A01 VFR
Kee Field (I16) KI16 091235Z AUTO 10SM SCT060 BKN075 14/04 A3003 RMK AO2 T01350043 VFR
Greene County-Lewis A Jackson Regional (I19) KI19 091235Z AUTO 10006G19KT 10SM SCT014 OVC046 07/07 A2985 RMK AO2 LTG DSNT NW T00680068 VFR
Fayette County (I23) KI23 091235Z AUTO 08015G20KT 10SM OVC050 06/05 A2985 RMK AO VFR
Tucker-Guthrie Memorial (I35) KI35 091235Z AUTO 00000KT 10SM CLR 15/07 A2998 RMK AO2 T01540071 VFR
James A Rhodes (I43) KI43 091215Z AUTO 08005KT 10SM OVC060 09/04 A2992 RMK AO2 VFR
Cincinnati West (I67) KI67 091235Z AUTO 10004KT 10SM OVC040 10/05 A2976 RMK AO1 VFR
Clermont County (I69) KI69 091235Z AUTO 11009G14KT 10SM OVC038 10/04 A2979 RMK AO2 T01020040 VFR
Grimes Field (I74) KI74 091235Z AUTO 09013G18KT 10SM DZ OVC007 05/05 A2989 RMK AO2 P0001 IFR
Hancock Co-Ron Lewis Field (KY8) KKY8 091235Z AUTO 19019G25KT 9SM BKN075 OVC090 18/15 A2966 RMK A01 VFR
Brazil Clay County (0I2) No weather for this Airport Unknown
Cynthiana-Harrison County (0I8) No weather for this Airport Unknown
Holmes County (10G) No weather for this Airport Unknown
Ona Airpark (12V) No weather for this Airport Unknown
Mc Creary County (18I) No weather for this Airport Unknown
Casey Municipal (1H8) No weather for this Airport Unknown
Jamestown Municipal (2A1) No weather for this Airport Unknown
Hendricks County-Gordon Graham Fld (2R2) No weather for this Airport Unknown
Sky King (3I3) No weather for this Airport Unknown
Dayton-Phillipsburg (3I7) No weather for this Airport Unknown
Morrow County (4I9) No weather for this Airport Unknown
Sheridan (5I4) No weather for this Airport Unknown
Indianapolis Downtown (8A4) No weather for this Airport Unknown
Piqua Airport- Hartzell Field (I17) No weather for this Airport Unknown
Jackson County (I18) No weather for this Airport Unknown
Randolph County (I22) No weather for this Airport Unknown
Greensburg Municipalcipal (I34) No weather for this Airport Unknown
Richard Downing (I40) No weather for this Airport Unknown
Clinton Field (I66) No weather for this Airport Unknown
Warren County/John Lane Field (I68) No weather for this Airport Unknown
Perry County (I86) No weather for this Airport Unknown
Breckinridge County (I93) No weather for this Airport Unknown
Hardin County (I95) No weather for this Airport Unknown
Russell County (K24) No weather for this Airport Unknown
Gene Snyder (K62) No weather for this Airport Unknown
Leitchfield-Grayson Co (M20) No weather for this Airport Unknown
Taylor County (AAS) KAAS 091235Z AUTO 19012G21KT 2 1/2SM CLR 17/10 A2986 RMK AO1 IFR
Mount Carmel Municipal (AJG) KAJG 091235Z AUTO 23013G18KT 7SM -TSRA OVC036 16/13 A2960 RMK AO2 LTG DSNT NE THRU S T01610132 VFR
Alexander Salamon (AMT) No weather for this Airport Unknown
Lima Allen County (AOH) No weather for this Airport Unknown
Neil Armstrong (AXV) KAXV 091235Z AUTO 08009G17KT 4SM -RA BKN009 BKN027 OVC050 05/05 A2988 RMK AO2 LTG DSNT SW AND W IFR
Virgil I Grissom Municipal (BFR) No weather for this Airport Unknown
Raleigh County Memorial (BKW) KBKW 091151Z AUTO 14012G21KT 10SM CLR 08/01 A3002 RMK AO2 SLP165 60003 70003 T00830011 10083 20061 56010 TSNO VFR
Mercer County (BLF) KBLF 091152Z AUTO 15011G22KT 130V200 10SM FEW055 09/M02 A3005 RMK AO2 SLP166 60000 7//// T00891022 10094 20067 58006 VFR
Samuels Field (BRY) KBRY 091235Z AUTO 20013G23KT 10SM CLR 17/10 A2974 RMK AO1 VFR
Williamsburg-Whitley County (BYL) KBYL 091235Z AUTO 13008KT 10SM CLR 15/08 A2992 RMK AO1 VFR
Mettel Field (CEV) No weather for this Airport Unknown
Crawfordsville Regional (CFJ) KCFJ 091235Z AUTO 1 3/4SM -TSSN OVC010 06/05 A2974 RMK AO2 LTG DSNT NE THRU S P0007 T00560048 IFR
Wendell H Ford (CPF) No weather for this Airport Unknown
Lakefield (CQA) No weather for this Airport Unknown
Carmi Municipal (CUL) No weather for this Airport Unknown
Pickaway County Memorial (CYO) No weather for this Airport Unknown
Daviess County (DCY) KDCY 091235Z AUTO 23018G31KT 10SM TS SCT041 SCT060 OVC085 18/13 A2962 RMK AO2 LTG DSNT ALQS T01780126 VFR
Delaware Municipal - Jim Moore Field (DLZ) No weather for this Airport Unknown
Stuart Powell Field (DVK) KDVK 091235Z AUTO 20009G16KT 10SM CLR 16/09 A2982 RMK AO2 VFR
Ashland Regional (DWU) No weather for this Airport Unknown
Appalachian Regional (EBD) No weather for this Airport Unknown
Bellefontaine Regional (EDJ) No weather for this Airport Unknown
Henderson City-County (EHR) KEHR 091156Z AUTO 19017G29KT 10SM BKN075 20/14 A2962 RMK AO2 PK WND 20029/1150 SLP031 T02000144 10200 20122 58036 VFR
Wayne County (EKQ) No weather for this Airport Unknown
Addington Field (EKX) No weather for this Airport Unknown
Pike County (EOP) No weather for this Airport Unknown
Eagle Creek Airpark (EYE) No weather for this Airport Unknown
Capital City (FFT) No weather for this Airport Unknown
Fleming-Mason (FGX) KFGX 091235Z AUTO 17011G15KT 10SM BKN040 OVC049 13/06 A2982 RMK AO2 T01250057 VFR
French Lick Municipal (FRH) No weather for this Airport Unknown
Gallia-Meigs Regional (GAS) No weather for this Airport Unknown
Brown County (GEO) No weather for this Airport Unknown
Shelbyville Municipal (GEZ) No weather for this Airport Unknown
Putnam County Regional (GPC) KGPC 091235Z AUTO 08010KT 1 1/2SM +TSRA BR OVC010 08/06 A2971 RMK AO2 LTG DSNT ALQDS T00770065 IFR
Butler Co Regional-Hogan Field (HAO) No weather for this Airport Unknown
Indy South Greenwood (HFY) KHFY 090035Z AUTO 10003KT 10SM BKN110 13/02 A3004 RMK AO2 T01250015 VFR
Huntingburg (HNB) KHNB 091244Z AUTO 19017G27KT 10SM VCTS -RA SCT070 OVC090 18/14 A2963 RMK AO2 PK WND 20040/1205 LTG DSNT ALQDS TSB38RAB41 P0001 VFR
Highland County (HOC) No weather for this Airport Unknown
Madison Municipal (IMS) No weather for this Airport Unknown
Mount Sterling-Montgomery County (IOB) KIOB 091235Z AUTO 20012G17KT 10SM CLR 15/07 A2983 RMK AO2 VFR
Julian Carroll (JKL) No weather for this Airport Unknown
Ohio County (JQD) No weather for this Airport Unknown
Clark Regional (JVY) KJVY 091235Z AUTO 18006KT 10SM CLR 16/11 A2968 RMK AO2 T01570111 TSNO VFR
Fairfield County (LHQ) KLHQ 091243Z AUTO 10011G16KT 9SM -RA BKN010 BKN014 OVC055 07/05 A2991 RMK AO2 CIG 008V012 P0002 T00670050 MVFR
Lonesome Pine (LNP) No weather for this Airport Unknown
London-Corbin Arpt-Magee Field (LOZ) KLOZ 091153Z AUTO 17008KT 10SM CLR 16/07 A2991 RMK AO2 SLP122 T01560072 10156 20094 55009 VFR
Lawrenceville-Vincennes International (LWV) No weather for this Airport Unknown
Dayton-Wright Brothers (MGY) KMGY 091153Z AUTO 10007G19KT 10SM -RA OVC047 08/05 A2984 RMK AO2 RAB13E23B44 SLP104 P0000 60005 70007 T00780050 10083 20078 56029 VFR
Indianapolis Regional (MQJ) No weather for this Airport Unknown
Union County (MRT) KMRT 091235Z AUTO 08008KT 3SM OVC007 06/04 A2994 RMK AO2 P0002 T00550044 IFR
Middletown Regional/Hook Field (MWO) KMWO 091235Z AUTO 06009KT 10SM OVC044 08/06 A2983 RMK AO2 LTG DSNT NW T00850062 VFR
North Vernon (OVO) No weather for this Airport Unknown
Miami University (OXD) KOXD 091159Z AUTO 12010KT 10SM OVC042 08/08 A2980 RMK AO2 LTG DSNT N VFR
Pike County-Hatcher Field (PBX) KPBX 091235Z AUTO 17008KT 10SM SCT055 BKN070 15/06 A2992 RMK AO2 T01450058 VFR
Greater Portsmouth Regional (PMH) KPMH 091159Z AUTO 13003KT 10SM OVC060 10/03 A2990 RMK AO2 VFR
Edgar County (PRG) No weather for this Airport Unknown
Central Kentucky Regional (RGA) KRGA 091235Z AUTO 20014G19KT 10SM CLR 16/09 A2984 RMK AO2 VFR
Richmond Municipal (RID) KRID 091235Z AUTO 09018G23KT 7SM -RA SCT011 SCT017 OVC038 06/06 A2980 RMK AO2 VFR
Crawford Co (RSV) KRSV 091235Z AUTO 36009KT 2SM +TSRA BKN016 BKN023 OVC031 11/10 A2964 RMK AO2 LTG DSNT ALQS T01070103 IFR
Ross County (RZT) KRZT 091235Z AUTO 08009KT 10SM OVC060 07/06 A2988 RMK AO2 P0001 PWINO VFR
Sidney Municipal (SCA) No weather for this Airport Unknown
Scott Municipal (SCX) KSCX 091235Z AUTO 19011G25KT 10SM CLR 17/08 A2995 RMK A01 VFR
Freeman Municipal (SER) No weather for this Airport Unknown
Springfield-Beckley Municipal (SGH) No weather for this Airport Unknown
Sullivan County (SIV) No weather for this Airport Unknown
Big Sandy Regional (SJS) KSJS 091235Z AUTO 19009KT 10SM BKN050 OVC085 15/06 A2990 RMK AO2 T01450061 VFR
Lake Cumberland Regional (SME) No weather for this Airport Unknown
Summersville (SXL) No weather for this Airport Unknown
Morehead-Rowan County Clyde A Thomas Regional (SYM) KSYM 021655Z AUTO 23010G15KT 10SM CLR 24/05 A2993 RMK AO2 VFR
Perry County Municipal (TEL) No weather for this Airport Unknown
Sturgis Municipal (TWT) No weather for this Airport Unknown
Indianapolis Executive (TYQ) KTYQ 091235Z AUTO 08015G24KT 10SM -TSRA OVC009 07/06 A2972 RMK AO2 LTG DSNT SW THRU N T00650055 IFR
Indianapolis Metropolitan (UMP) No weather for this Airport Unknown
Ohio University (UNI) KUNI 091230Z AUTO 08007KT 10SM -RA OVC060 08/05 A2990 RMK AO2 T00800048 VFR
Boggs Field (USW) No weather for this Airport Unknown
New Castle Henry County Marlatt Field (UWL) No weather for this Airport Unknown
Madison County (UYF) KUYF 091235Z AUTO 08016G22KT 10SM -RA BKN007 BKN012 OVC049 06/05 A2988 RMK AO2 IFR
Darke County (VES) KVES 091230Z AUTO 09011G19KT 10SM -RA BKN007 BKN012 OVC021 06/06 A2985 RMK AO2 LTG DSNT W IFR
Newark-Heath (VTA) KVTA 091219Z AUTO 08010KT 6SM -RA BR FEW008 SCT012 OVC038 07/05 A2994 RMK AO2 P0003 T00670050 VFR
Zanesville Municipal (ZZV) KZZV 091205Z AUTO 07008KT 10SM -RA FEW009 OVC043 06/05 A2997 RMK AO2 P0000 T00610050 VFR
Red Stewart Airfield (40I) No weather for this Airport Unknown
Dahio Trotwood (I44) No weather for this Airport Unknown
Mad River Airpark (I54) No weather for this Airport Unknown
Moraine Air Park (I73) No weather for this Airport Unknown
Alexandria (I99) No weather for this Airport Unknown
Fry (0OH8) No weather for this Airport Unknown
Fayette County Memorial Hospital (11OH) No weather for this Airport Unknown
Uk Hospital (37KY) No weather for this Airport Unknown
Andy Barnhart Memorial (3OH0) No weather for this Airport Unknown
Medical Center Albany (45KY) No weather for this Airport Unknown
Westlake Regional Hospital (48KY) No weather for this Airport Unknown
Manchester Memorial Hospital (4KY2) No weather for this Airport Unknown
Bethesda Hospital Helistop (4OH2) No weather for this Airport Unknown
Appalachian Regional Hospital (51KY) No weather for this Airport Unknown
Bedford Medical Center (57IN) No weather for this Airport Unknown
Union Hospital (60II) No weather for this Airport Unknown
Skydive Greene County Inc (7OA7) No weather for this Airport Unknown
Methodist Hospital Of In Inc (81II) No weather for this Airport Unknown
Saint Joseph Hospital (88KY) No weather for this Airport Unknown
Riverside Methodist Hospital (9OI9) No weather for this Airport Unknown
Decatur County Memorial Hospital (IN35) No weather for this Airport Unknown
Reid Hospital (IN68) No weather for this Airport Unknown
Ball Memorial Hospital (IN74) No weather for this Airport Unknown
Iu Health Morgan (IN84) No weather for this Airport Unknown
Grant Medical Center (OH01) No weather for this Airport Unknown
Knox Communicipalty Hospital (OH04) No weather for this Airport Unknown
O'Bleness Memorial Hospital (OH23) No weather for this Airport Unknown
Schaney'S Lair (OH46) No weather for this Airport Unknown
Southern Ohio Regional Medical Center (OH62) No weather for this Airport Unknown
Troy Skypark (OH71) No weather for this Airport Unknown
Nationwide Children'S Hospital (OI95) No weather for this Airport Unknown